Terminal Aerodrome Forecast
Issued by NWS

Home | Current Version | Previous Version | Text Only | Print | Product List | Glossary On
Versions: 1 2 3 4 5 6 7 8 9 10 11 12 13 14 15 16
000
FTUS41 KGYX 291720
TAFHIE
TAF
KHIE 291720Z 2918/3018 VRB03KT P6SM SCT045
     FM300900 00000KT 1/4SM FG VV002
     FM301400 00000KT P6SM BKN250=

USA.gov is the U.S. government's official web portal to all federal, state and local government web resources and services.